Search for airport 
image banner adimage banner ad
image banner ad

EKSY - Skuvoy

Located in Skuvoy, Faroe Islands

ICAO - EKSY, IATA -

Data provided by Airmate  

General information

Coordinates: N61°46'10" W6°48'12"
Elevation is 70 feet MSL.
Magnetic variation is -8.1° East
View others Airports in (unassigned)

Operational data

Open for public use
Current time UTC:
Current local time:
Weather at : EKVG - Vagar ( 41 km )
METAR: EKVG 232250Z AUTO 00000KT 9999 BKN060/// M00/M02 Q0987
TAF: TAF EKVG 231421Z 2315/2321 29007KT 9999 SCT020 BKN030
View NOTAMs / SUP AIP / TFR affecting this airport [VIEW]
Communications frequencies: [VIEW]

Runways:

Airport contact information

Address: Skuvoy Faroe Islands

Satellite view of EKSY